Time;durP1;ratioP1;P1;durP2;ratioP2;P2;SDS_P1;SDS_P2;PMS_P1;PMS_P2;Temp;Humidity;BMP_temperature;BMP_pressure;BME280_temperature;BME280_humidity;BME280_pressure;Samples;Min_cycle;Max_cycle;Signal;HPM_P1;HPM_P2
2023/07/29 00:01:41;;;;;;;8.45;6.07;;;18.40;99.90;;;;;;5088794;27;20509;-85
2023/07/29 00:04:08;;;;;;;8.55;6.00;;;18.40;99.90;;;;;;5106021;27;20043;-84
2023/07/29 00:06:34;;;;;;;7.55;5.32;;;18.40;99.90;;;;;;5083770;27;20539;-84
2023/07/29 00:09:00;;;;;;;8.48;5.53;;;18.40;99.90;;;;;;5095286;27;20222;-85
2023/07/29 00:11:28;;;;;;;7.38;5.32;;;18.40;99.90;;;;;;5094873;27;20119;-83
2023/07/29 00:13:54;;;;;;;8.15;5.57;;;18.40;99.90;;;;;;5132564;27;20510;-85
2023/07/29 00:16:22;;;;;;;6.18;4.85;;;18.40;99.90;;;;;;5095897;27;20091;-85
2023/07/29 00:18:59;;;;;;;9.05;5.60;;;18.30;99.90;;;;;;5115889;27;20147;-85
2023/07/29 00:21:25;;;;;;;;;;;18.40;99.90;;;;;;5087882;27;20047;-83
2023/07/29 00:23:51;;;;;;;7.97;5.50;;;18.40;99.90;;;;;;5098943;27;19915;-83
2023/07/29 00:26:17;;;;;;;7.65;5.53;;;18.40;99.90;;;;;;5118508;27;20035;-83
2023/07/29 00:28:43;;;;;;;6.78;5.68;;;18.40;99.90;;;;;;5116546;27;20107;-84
2023/07/29 00:31:08;;;;;;;7.57;5.82;;;18.50;99.90;;;;;;5113694;27;20103;-83
2023/07/29 00:33:34;;;;;;;8.60;5.63;;;18.40;99.90;;;;;;5124506;27;20050;-83
2023/07/29 00:36:01;;;;;;;7.68;5.82;;;18.40;99.90;;;;;;5089291;27;20028;-83
2023/07/29 00:38:27;;;;;;;7.95;5.30;;;18.30;99.90;;;;;;5089962;27;20038;-83
2023/07/29 00:40:53;;;;;;;10.82;6.00;;;18.30;99.90;;;;;;5105879;27;20228;-83
2023/07/29 00:43:19;;;;;;;9.05;5.75;;;18.30;99.90;;;;;;5093431;27;20133;-83
2023/07/29 00:45:45;;;;;;;10.27;6.13;;;18.30;99.90;;;;;;5086735;27;20035;-83
2023/07/29 00:48:11;;;;;;;8.63;6.13;;;18.30;99.90;;;;;;5095520;27;20034;-84
2023/07/29 00:50:37;;;;;;;7.80;6.07;;;18.30;99.90;;;;;;5093683;27;20074;-82
2023/07/29 00:53:03;;;;;;;9.45;6.53;;;18.30;99.90;;;;;;5121016;27;20058;-83
2023/07/29 00:55:29;;;;;;;7.90;6.00;;;18.30;99.90;;;;;;5107706;27;20560;-83
2023/07/29 00:57:54;;;;;;;8.52;6.25;;;18.20;99.90;;;;;;5089223;27;20050;-83
2023/07/29 01:00:21;;;;;;;9.13;6.57;;;18.10;99.90;;;;;;5098327;27;20042;-83
2023/07/29 01:02:47;;;;;;;9.27;6.30;;;18.20;99.90;;;;;;5091696;27;20397;-84
2023/07/29 01:05:15;;;;;;;7.90;6.00;;;18.10;99.90;;;;;;5107782;27;20042;-83
2023/07/29 01:08:21;;;;;;;8.52;6.18;;;18.00;99.90;;;;;;5105837;27;20039;-83
2023/07/29 01:11:01;;;;;;;8.43;6.45;;;18.00;99.90;;;;;;5128285;27;20075;-83
2023/07/29 01:13:50;;;;;;;8.98;6.18;;;18.00;99.90;;;;;;5091398;27;20206;-83
2023/07/29 01:16:29;;;;;;;6.68;5.43;;;18.00;99.90;;;;;;5086755;27;20039;-83
2023/07/29 01:18:55;;;;;;;9.30;5.95;;;17.90;99.90;;;;;;5109857;27;20062;-83
2023/07/29 01:21:22;;;;;;;8.27;5.88;;;17.80;99.90;;;;;;5096926;27;20438;-84
2023/07/29 01:23:48;;;;;;;9.40;5.82;;;17.80;99.90;;;;;;5114476;27;20557;-83
2023/07/29 01:26:14;;;;;;;7.85;6.00;;;17.80;99.90;;;;;;5084915;27;20043;-83
2023/07/29 01:28:39;;;;;;;12.52;7.03;;;17.80;99.90;;;;;;5104071;27;20038;-84
2023/07/29 01:31:25;;;;;;;9.50;6.05;;;17.80;99.90;;;;;;5105273;27;20398;-84
2023/07/29 01:34:01;;;;;;;9.63;6.40;;;17.60;99.90;;;;;;5090181;27;20096;-83
2023/07/29 01:36:30;;;;;;;8.77;6.50;;;17.60;99.90;;;;;;5102323;27;20043;-84
2023/07/29 01:38:57;;;;;;;9.00;6.28;;;17.50;99.90;;;;;;5116274;27;20042;-84
2023/07/29 01:41:24;;;;;;;9.68;7.10;;;17.50;99.90;;;;;;5112660;27;20096;-83
2023/07/29 01:43:50;;;;;;;9.57;6.53;;;17.50;99.90;;;;;;5112776;27;20058;-84
2023/07/29 01:46:16;;;;;;;10.30;6.15;;;17.40;99.90;;;;;;5086985;27;20081;-84
2023/07/29 01:48:42;;;;;;;9.90;6.53;;;17.40;99.90;;;;;;5086847;27;20062;-84
2023/07/29 01:51:08;;;;;;;8.68;6.50;;;17.40;99.90;;;;;;5094441;27;20131;-83
2023/07/29 01:53:35;;;;;;;9.02;6.63;;;17.40;99.90;;;;;;5088265;27;20051;-84
2023/07/29 01:56:01;;;;;;;10.05;6.78;;;17.30;99.90;;;;;;5084284;27;20254;-84
2023/07/29 01:58:27;;;;;;;9.73;6.45;;;17.20;99.90;;;;;;5115386;27;20031;-83
2023/07/29 02:00:52;;;;;;;9.13;6.45;;;17.20;99.90;;;;;;5086997;27;20054;-83
2023/07/29 02:03:18;;;;;;;10.27;6.40;;;17.20;99.90;;;;;;5104878;27;20044;-83
2023/07/29 02:05:44;;;;;;;8.32;6.20;;;17.20;99.90;;;;;;5099514;27;20035;-84
2023/07/29 02:08:10;;;;;;;9.45;6.30;;;17.20;99.90;;;;;;5122626;27;20503;-84
2023/07/29 02:10:36;;;;;;;10.77;6.85;;;17.10;99.90;;;;;;5096332;27;20039;-84
2023/07/29 02:13:02;;;;;;;9.23;6.78;;;17.10;99.90;;;;;;5093806;27;20096;-84
2023/07/29 02:15:28;;;;;;;7.90;5.72;;;17.10;99.90;;;;;;5097060;27;20063;-84
2023/07/29 02:17:54;;;;;;;8.02;6.45;;;17.00;99.90;;;;;;5091446;27;20069;-84
2023/07/29 02:20:20;;;;;;;9.57;6.45;;;17.10;99.90;;;;;;5080667;27;20043;-83
2023/07/29 02:22:47;;;;;;;8.57;5.80;;;17.10;99.90;;;;;;5109673;27;20414;-84
2023/07/29 02:25:12;;;;;;;8.98;6.43;;;17.00;99.90;;;;;;5125114;27;20046;-84
2023/07/29 02:27:38;;;;;;;10.23;6.60;;;17.00;99.90;;;;;;5108235;27;20049;-84
2023/07/29 02:30:04;;;;;;;9.10;6.38;;;17.00;99.90;;;;;;5119603;27;20043;-84
2023/07/29 02:32:33;;;;;;;9.55;6.57;;;17.00;99.90;;;;;;5091772;27;20968;-84
2023/07/29 02:34:59;;;;;;;9.70;6.57;;;17.00;99.90;;;;;;5103046;27;20031;-84
2023/07/29 02:37:25;;;;;;;8.73;6.32;;;17.00;99.90;;;;;;5082559;27;20039;-83
2023/07/29 02:39:50;;;;;;;8.30;6.00;;;16.90;99.90;;;;;;5101495;27;20043;-84
2023/07/29 02:42:16;;;;;;;10.43;6.55;;;16.90;99.90;;;;;;5105375;27;20468;-84
2023/07/29 02:44:41;;;;;;;10.30;6.32;;;16.90;99.90;;;;;;5093527;27;20054;-84
2023/07/29 02:47:07;;;;;;;10.98;6.70;;;16.90;99.90;;;;;;5090326;27;20038;-85
2023/07/29 02:49:33;;;;;;;8.95;6.20;;;16.80;99.90;;;;;;5095979;27;20043;-84
2023/07/29 02:51:59;;;;;;;8.73;5.90;;;16.90;99.90;;;;;;5092630;27;20038;-83
2023/07/29 02:54:25;;;;;;;7.85;5.38;;;16.80;99.90;;;;;;5125672;27;20561;-84
2023/07/29 02:56:51;;;;;;;8.90;5.97;;;16.80;99.90;;;;;;5087129;27;20043;-84
2023/07/29 02:59:16;;;;;;;8.35;5.07;;;16.80;99.90;;;;;;5088093;27;20147;-84
2023/07/29 03:01:42;;;;;;;8.38;5.45;;;16.80;99.90;;;;;;5085371;27;20156;-84
2023/07/29 03:04:08;;;;;;;11.93;5.78;;;16.80;99.90;;;;;;5126229;27;20074;-83
2023/07/29 03:06:33;;;;;;;7.93;5.45;;;16.90;99.90;;;;;;5087965;27;20049;-83
2023/07/29 03:08:59;;;;;;;8.10;5.40;;;16.90;99.90;;;;;;5109802;27;20043;-84
2023/07/29 03:11:28;;;;;;;9.18;5.30;;;16.90;99.90;;;;;;5101098;27;20054;-84
2023/07/29 03:13:53;;;;;;;7.78;5.38;;;16.80;99.90;;;;;;5124577;27;20167;-84
2023/07/29 03:16:19;;;;;;;8.80;5.10;;;16.80;99.90;;;;;;5101938;27;20569;-83
2023/07/29 03:18:45;;;;;;;7.00;4.70;;;16.90;99.90;;;;;;5087740;27;20118;-83
2023/07/29 03:21:11;;;;;;;7.80;4.82;;;16.90;99.90;;;;;;5089126;27;20455;-84
2023/07/29 03:23:37;;;;;;;7.90;4.78;;;16.90;99.90;;;;;;5093385;27;20050;-83
2023/07/29 03:26:09;;;;;;;7.85;4.65;;;16.90;99.90;;;;;;5093312;27;20466;-83
2023/07/29 03:28:42;;;;;;;7.28;4.45;;;16.80;99.90;;;;;;5130279;27;20043;-84
2023/07/29 03:31:08;;;;;;;6.82;4.45;;;16.80;99.90;;;;;;5110577;27;20026;-83
2023/07/29 03:33:34;;;;;;;6.82;4.55;;;16.80;99.90;;;;;;5083920;27;20093;-83
2023/07/29 03:36:00;;;;;;;7.40;4.53;;;16.80;99.90;;;;;;5130417;27;20038;-84
2023/07/29 03:38:26;;;;;;;7.05;4.03;;;16.70;99.90;;;;;;5105835;27;20070;-83
2023/07/29 03:40:53;;;;;;;5.60;4.20;;;16.70;99.90;;;;;;5111682;27;20035;-84
2023/07/29 03:43:19;;;;;;;6.95;4.10;;;16.70;99.90;;;;;;5121280;27;20493;-84
2023/07/29 03:45:44;;;;;;;8.57;4.28;;;16.70;99.90;;;;;;5098307;27;20179;-83
2023/07/29 03:48:10;;;;;;;6.20;3.78;;;16.70;99.90;;;;;;5106160;27;20116;-84
2023/07/29 03:50:37;;;;;;;7.03;3.85;;;16.70;99.90;;;;;;5082529;27;20039;-84
2023/07/29 03:53:04;;;;;;;6.93;4.03;;;16.60;99.90;;;;;;5094139;27;20428;-84
2023/07/29 03:55:30;;;;;;;7.00;3.80;;;16.60;99.90;;;;;;5092473;27;20039;-84
2023/07/29 03:58:00;;;;;;;8.77;4.50;;;16.60;99.90;;;;;;5082082;27;20038;-84
2023/07/29 04:00:26;;;;;;;7.07;4.03;;;16.60;99.90;;;;;;5114133;27;20137;-84
2023/07/29 04:02:52;;;;;;;5.10;3.58;;;16.60;99.90;;;;;;5105617;27;20034;-84
2023/07/29 04:05:18;;;;;;;6.22;4.15;;;16.60;99.90;;;;;;5103384;27;20566;-84
2023/07/29 04:07:44;;;;;;;8.02;4.10;;;16.60;99.90;;;;;;5103650;27;20050;-84
2023/07/29 04:10:10;;;;;;;6.25;3.33;;;16.60;99.90;;;;;;5096702;27;20030;-84
2023/07/29 04:12:35;;;;;;;6.03;3.53;;;16.60;99.90;;;;;;5101655;27;20046;-84
2023/07/29 04:15:01;;;;;;;10.00;4.00;;;16.60;99.90;;;;;;5088253;27;20039;-83
2023/07/29 04:17:27;;;;;;;5.63;3.58;;;16.60;99.90;;;;;;5104787;27;20074;-84
2023/07/29 04:19:53;;;;;;;7.68;3.63;;;16.70;99.90;;;;;;5085244;27;20089;-84
2023/07/29 04:22:18;;;;;;;6.32;3.60;;;16.70;99.90;;;;;;5084283;27;20035;-84
2023/07/29 04:24:44;;;;;;;6.38;3.83;;;16.70;99.90;;;;;;5108256;27;20058;-84
2023/07/29 04:27:10;;;;;;;7.47;3.80;;;16.80;99.90;;;;;;5100289;28;20114;-84
2023/07/29 04:29:36;;;;;;;5.63;3.13;;;16.80;99.90;;;;;;5092030;27;20467;-84
2023/07/29 04:32:02;;;;;;;5.88;3.55;;;16.80;99.90;;;;;;5089228;27;20039;-84
2023/07/29 04:34:28;;;;;;;6.03;3.13;;;16.80;99.90;;;;;;5098089;27;20057;-84
2023/07/29 04:36:54;;;;;;;5.38;3.08;;;16.80;99.90;;;;;;5082750;27;20042;-84
2023/07/29 04:39:19;;;;;;;6.10;3.50;;;16.90;99.90;;;;;;5133528;27;20056;-84
2023/07/29 04:41:45;;;;;;;7.07;3.47;;;16.90;99.90;;;;;;5094207;27;20046;-84
2023/07/29 04:44:11;;;;;;;6.82;3.42;;;16.90;99.90;;;;;;5109914;27;20093;-84
2023/07/29 04:46:38;;;;;;;4.32;3.20;;;17.00;99.90;;;;;;5096725;27;20051;-84
2023/07/29 04:49:04;;;;;;;7.00;3.13;;;17.10;99.90;;;;;;5100652;27;20470;-84
2023/07/29 04:51:31;;;;;;;5.25;3.47;;;17.10;99.90;;;;;;5089920;27;20118;-84
2023/07/29 04:53:57;;;;;;;5.05;3.20;;;17.20;99.90;;;;;;5113157;27;20053;-84
2023/07/29 04:56:23;;;;;;;7.95;3.65;;;17.20;99.90;;;;;;5127451;27;20034;-84
2023/07/29 04:58:49;;;;;;;5.15;3.50;;;17.30;99.90;;;;;;5110822;27;20038;-84
2023/07/29 05:01:14;;;;;;;6.60;3.28;;;17.30;99.90;;;;;;5118192;27;20044;-85
2023/07/29 05:03:40;;;;;;;4.35;3.10;;;17.40;99.90;;;;;;5087059;27;20041;-84
2023/07/29 05:06:06;;;;;;;4.85;3.20;;;17.40;99.90;;;;;;5089395;27;20115;-84
2023/07/29 05:08:32;;;;;;;3.90;2.90;;;17.40;99.90;;;;;;5098898;27;20461;-84
2023/07/29 05:10:57;;;;;;;7.25;3.15;;;17.40;99.90;;;;;;5106489;27;20461;-84
2023/07/29 05:13:23;;;;;;;5.43;2.72;;;17.40;99.90;;;;;;5106102;27;20495;-84
2023/07/29 05:15:49;;;;;;;4.97;2.75;;;17.40;99.90;;;;;;5111848;27;20039;-84
2023/07/29 05:18:16;;;;;;;5.00;3.08;;;17.40;99.90;;;;;;5091794;27;20501;-84
2023/07/29 05:20:42;;;;;;;4.72;2.80;;;17.40;99.90;;;;;;5109613;27;20061;-84
2023/07/29 05:23:07;;;;;;;4.60;2.60;;;17.40;99.90;;;;;;5091122;27;20032;-84
2023/07/29 05:25:34;;;;;;;4.15;2.80;;;17.40;99.90;;;;;;5101121;27;20119;-84
2023/07/29 05:28:01;;;;;;;4.22;2.53;;;17.40;99.90;;;;;;5086590;27;20481;-84
2023/07/29 05:30:30;;;;;;;4.03;2.58;;;17.40;99.90;;;;;;5088048;27;20404;-84
2023/07/29 05:32:59;;;;;;;6.22;2.60;;;17.50;99.90;;;;;;5087989;27;20027;-84
2023/07/29 05:35:25;;;;;;;6.30;2.58;;;17.50;99.90;;;;;;5092489;27;20553;-84
2023/07/29 05:37:51;;;;;;;6.57;2.80;;;17.60;99.90;;;;;;5087645;27;20047;-84
2023/07/29 05:40:17;;;;;;;3.55;2.40;;;17.50;99.90;;;;;;5113968;27;20027;-83
2023/07/29 05:42:44;;;;;;;3.45;2.25;;;17.60;99.90;;;;;;5108085;27;20557;-84
2023/07/29 05:45:10;;;;;;;3.92;2.47;;;17.60;99.90;;;;;;5111582;27;20092;-83
2023/07/29 05:47:36;;;;;;;5.20;2.58;;;17.60;99.90;;;;;;5084439;27;20083;-84
2023/07/29 05:50:04;;;;;;;5.47;2.72;;;17.60;99.90;;;;;;5120826;27;20467;-84
2023/07/29 05:52:30;;;;;;;8.55;2.60;;;17.60;99.90;;;;;;5109620;27;20041;-84
2023/07/29 05:54:56;;;;;;;4.43;2.42;;;17.60;99.90;;;;;;5130170;27;20030;-84
2023/07/29 05:57:22;;;;;;;3.15;2.40;;;17.70;99.90;;;;;;5114558;27;20031;-84
2023/07/29 05:59:47;;;;;;;7.05;3.47;;;17.60;99.90;;;;;;5096437;27;20125;-84
2023/07/29 06:02:16;;;;;;;6.93;2.67;;;17.70;99.90;;;;;;5123025;27;20067;-84
2023/07/29 06:04:42;;;;;;;4.35;2.63;;;17.70;99.90;;;;;;5087670;27;20087;-84
2023/07/29 06:07:07;;;;;;;4.13;2.63;;;17.70;99.90;;;;;;5096809;27;20042;-84
2023/07/29 06:09:33;;;;;;;4.13;2.75;;;17.80;99.90;;;;;;5110471;27;20362;-84
2023/07/29 06:11:59;;;;;;;4.65;2.65;;;17.90;99.90;;;;;;5102463;27;20104;-84
2023/07/29 06:14:26;;;;;;;5.03;2.53;;;18.00;99.90;;;;;;5085860;27;20854;-84
2023/07/29 06:16:51;;;;;;;5.65;2.53;;;18.10;99.90;;;;;;5091802;27;20031;-84
2023/07/29 06:19:18;;;;;;;4.38;2.75;;;18.00;99.90;;;;;;5119961;27;20031;-84
2023/07/29 06:21:44;;;;;;;5.45;2.67;;;18.00;99.90;;;;;;5116175;27;20439;-83
2023/07/29 06:24:09;;;;;;;6.28;2.28;;;18.00;99.90;;;;;;5100299;27;20031;-83
2023/07/29 06:26:35;;;;;;;3.83;2.55;;;18.10;99.90;;;;;;5099915;27;20101;-84
2023/07/29 06:29:04;;;;;;;4.10;2.35;;;18.20;99.90;;;;;;5098033;27;20049;-84
2023/07/29 06:31:30;;;;;;;5.30;2.80;;;18.40;99.90;;;;;;5098669;27;20481;-84
2023/07/29 06:33:55;;;;;;;4.53;2.60;;;18.50;99.90;;;;;;5088446;27;20045;-84
2023/07/29 06:36:21;;;;;;;6.20;2.70;;;18.70;99.90;;;;;;5082610;27;20409;-84
2023/07/29 06:38:47;;;;;;;4.78;2.70;;;19.00;99.90;;;;;;5106383;27;20390;-84
2023/07/29 06:41:12;;;;;;;6.13;2.70;;;19.10;99.90;;;;;;5104867;27;20043;-84
2023/07/29 06:43:38;;;;;;;5.82;2.30;;;19.10;99.90;;;;;;5091782;27;20445;-84
2023/07/29 06:46:04;;;;;;;4.40;2.42;;;19.20;99.90;;;;;;5100785;27;20269;-84
2023/07/29 06:48:33;;;;;;;5.45;2.83;;;19.30;99.90;;;;;;5129819;27;20035;-84
2023/07/29 06:51:00;;;;;;;4.00;2.05;;;19.20;99.90;;;;;;5111760;27;20368;-84
2023/07/29 06:53:26;;;;;;;5.38;2.53;;;19.30;99.90;;;;;;5110059;27;20838;-84
2023/07/29 06:55:52;;;;;;;3.17;2.10;;;19.30;99.90;;;;;;5100916;27;20362;-83
2023/07/29 06:58:18;;;;;;;4.82;2.67;;;19.40;99.90;;;;;;5113049;27;20031;-84
2023/07/29 07:00:44;;;;;;;3.78;2.25;;;19.50;99.90;;;;;;5114281;27;20054;-83
2023/07/29 07:03:09;;;;;;;5.40;2.15;;;19.70;99.90;;;;;;5107511;27;20042;-84
2023/07/29 07:05:35;;;;;;;6.15;2.65;;;19.80;99.90;;;;;;5076910;27;20355;-84
2023/07/29 07:08:01;;;;;;;5.50;2.88;;;19.90;99.90;;;;;;5089539;27;20297;-84
2023/07/29 07:10:26;;;;;;;4.80;2.53;;;19.80;99.90;;;;;;5099227;27;20455;-84
2023/07/29 07:12:52;;;;;;;9.13;3.30;;;19.80;99.90;;;;;;5089325;27;20040;-84
2023/07/29 07:15:18;;;;;;;6.35;3.10;;;20.10;99.90;;;;;;5110803;27;20374;-83
2023/07/29 07:17:43;;;;;;;6.65;3.30;;;20.00;99.90;;;;;;5103310;27;20047;-84
2023/07/29 07:20:09;;;;;;;5.07;2.90;;;19.80;99.90;;;;;;5111788;27;20039;-83
2023/07/29 07:22:35;;;;;;;4.75;2.88;;;19.70;99.90;;;;;;5095953;27;20051;-84
2023/07/29 07:25:00;;;;;;;7.13;3.35;;;19.80;99.90;;;;;;5097996;27;20126;-84
2023/07/29 07:27:27;;;;;;;5.93;3.13;;;19.70;99.90;;;;;;5083922;27;20039;-84
2023/07/29 07:29:52;;;;;;;6.57;2.75;;;19.60;99.90;;;;;;5106993;27;20083;-84
2023/07/29 07:32:18;;;;;;;6.20;3.33;;;19.80;99.90;;;;;;5083007;27;20036;-84
2023/07/29 07:34:43;;;;;;;5.20;3.70;;;20.00;99.90;;;;;;5095584;27;20115;-84
2023/07/29 07:37:09;;;;;;;6.20;3.40;;;19.90;99.90;;;;;;5089636;27;20488;-84
2023/07/29 07:39:35;;;;;;;8.38;3.75;;;20.20;99.90;;;;;;5108317;27;20047;-83
2023/07/29 07:42:00;;;;;;;5.57;3.85;;;20.30;99.90;;;;;;5104066;27;20039;-84
2023/07/29 07:44:26;;;;;;;6.35;4.22;;;20.60;99.90;;;;;;5090357;27;20047;-84
2023/07/29 07:46:53;;;;;;;9.40;4.90;;;20.40;99.90;;;;;;5121696;27;20458;-84
2023/07/29 07:49:19;;;;;;;5.95;4.00;;;20.40;99.90;;;;;;5091759;27;20047;-84
2023/07/29 07:51:45;;;;;;;7.10;4.47;;;20.70;99.90;;;;;;5080202;27;20040;-84
2023/07/29 07:54:10;;;;;;;7.82;3.55;;;21.00;99.90;;;;;;5084101;27;20445;-84
2023/07/29 07:56:36;;;;;;;11.07;4.00;;;21.10;99.90;;;;;;5102742;27;20080;-84
2023/07/29 07:59:02;;;;;;;6.07;3.55;;;20.90;99.90;;;;;;5121343;27;20106;-84
2023/07/29 08:01:27;;;;;;;5.13;3.30;;;20.90;99.90;;;;;;5098592;27;20318;-83
2023/07/29 08:03:53;;;;;;;7.00;3.28;;;21.00;99.90;;;;;;5099638;27;20108;-84
2023/07/29 08:06:19;;;;;;;6.35;3.17;;;21.20;99.90;;;;;;5092603;27;20429;-84
2023/07/29 08:08:44;;;;;;;4.47;2.70;;;21.10;99.90;;;;;;5104822;27;20050;-84
2023/07/29 08:11:10;;;;;;;5.50;2.88;;;21.30;99.90;;;;;;5099289;27;20035;-84
2023/07/29 08:13:36;;;;;;;7.05;3.30;;;21.20;99.90;;;;;;5102708;28;20122;-84
2023/07/29 08:16:02;;;;;;;4.70;2.97;;;21.20;99.90;;;;;;5107232;27;20038;-84
2023/07/29 08:18:27;;;;;;;5.85;3.40;;;21.40;99.90;;;;;;5086715;27;20401;-84
2023/07/29 08:20:58;;;;;;;4.63;3.03;;;21.50;99.90;;;;;;5099954;27;20047;-84
2023/07/29 08:23:25;;;;;;;5.28;3.00;;;21.40;99.90;;;;;;5100458;27;20042;-83
2023/07/29 08:26:00;;;;;;;4.38;2.53;;;21.50;99.90;;;;;;5086884;27;20418;-84
2023/07/29 08:28:27;;;;;;;;;;;21.40;99.90;;;;;;5117182;27;20075;-83
2023/07/29 08:30:52;;;;;;;4.75;2.83;;;21.40;99.90;;;;;;5101346;27;19923;-84
2023/07/29 08:33:18;;;;;;;5.18;2.78;;;21.90;99.90;;;;;;5123208;27;20042;-84
2023/07/29 08:35:43;;;;;;;4.07;2.72;;;22.30;99.90;;;;;;5103806;27;20591;-84
2023/07/29 08:38:09;;;;;;;4.43;2.60;;;22.20;99.90;;;;;;5094894;27;20506;-84
2023/07/29 08:40:41;;;;;;;5.28;2.80;;;22.10;99.90;;;;;;5088055;27;20352;-84
2023/07/29 08:43:08;;;;;;;4.43;2.55;;;21.90;99.90;;;;;;5114118;27;20051;-84
2023/07/29 08:45:36;;;;;;;3.60;2.40;;;21.50;99.90;;;;;;5092088;27;20111;-84
2023/07/29 08:48:06;;;;;;;4.43;3.22;;;21.50;99.90;;;;;;5091422;27;20440;-84
2023/07/29 08:50:32;;;;;;;4.60;2.97;;;21.70;99.90;;;;;;5108377;27;20045;-83
2023/07/29 08:53:00;;;;;;;3.65;2.53;;;21.80;99.90;;;;;;5093288;27;20042;-83
2023/07/29 08:55:26;;;;;;;5.72;2.90;;;21.90;99.90;;;;;;5113835;27;20123;-83
2023/07/29 08:57:52;;;;;;;3.90;2.47;;;22.30;99.90;;;;;;5088547;27;20035;-83
2023/07/29 09:00:19;;;;;;;4.75;2.63;;;22.70;99.90;;;;;;5113290;27;20043;-84
2023/07/29 09:02:45;;;;;;;5.10;2.60;;;22.90;99.90;;;;;;5092481;27;20190;-83
2023/07/29 09:05:10;;;;;;;4.32;2.25;;;22.80;99.90;;;;;;5096837;27;20122;-84
2023/07/29 09:07:36;;;;;;;4.35;2.30;;;22.40;99.90;;;;;;5094734;27;20039;-84
2023/07/29 09:10:02;;;;;;;5.88;2.80;;;22.00;99.90;;;;;;5113098;27;20046;-84
2023/07/29 09:12:28;;;;;;;3.80;2.17;;;21.90;99.90;;;;;;5086165;27;20462;-83
2023/07/29 09:14:56;;;;;;;7.03;2.30;;;21.90;99.90;;;;;;5115832;27;20039;-83
2023/07/29 09:17:22;;;;;;;5.10;2.20;;;21.90;99.90;;;;;;5084495;27;20043;-83
2023/07/29 09:19:50;;;;;;;3.03;2.00;;;22.00;99.90;;;;;;5086917;27;20039;-83
2023/07/29 09:22:20;;;;;;;5.43;3.15;;;22.00;99.90;;;;;;5082902;27;20078;-84
2023/07/29 09:24:47;;;;;;;7.15;2.42;;;22.20;99.90;;;;;;5107977;27;20509;-83
2023/07/29 09:27:27;;;;;;;3.72;2.33;;;22.00;99.90;;;;;;5104563;27;20031;-83
2023/07/29 09:29:53;;;;;;;5.45;2.50;;;22.70;99.90;;;;;;5092793;27;20079;-84
2023/07/29 09:32:23;;;;;;;5.43;2.38;;;22.80;99.90;;;;;;5091998;27;20506;-84
2023/07/29 09:34:49;;;;;;;4.85;2.28;;;22.40;99.90;;;;;;5104985;27;20092;-84
2023/07/29 09:37:21;;;;;;;5.18;2.00;;;22.40;99.90;;;;;;5103709;27;20035;-84
2023/07/29 09:39:47;;;;;;;3.63;2.05;;;22.60;99.90;;;;;;5113009;27;20551;-82
2023/07/29 09:42:21;;;;;;;4.18;2.33;;;22.70;99.90;;;;;;5095329;27;20187;-84
2023/07/29 09:44:49;;;;;;;3.30;2.10;;;22.90;99.90;;;;;;5100681;27;20055;-84
2023/07/29 09:47:25;;;;;;;3.92;1.88;;;23.80;99.90;;;;;;5088039;27;20182;-83
2023/07/29 09:49:52;;;;;;;5.32;2.38;;;24.10;99.90;;;;;;5088428;27;20114;-83
2023/07/29 09:52:19;;;;;;;4.20;2.00;;;23.60;99.90;;;;;;5084809;27;20031;-84
2023/07/29 09:54:46;;;;;;;2.75;1.73;;;23.60;99.90;;;;;;5108711;27;20071;-84
2023/07/29 09:57:14;;;;;;;6.07;1.83;;;23.60;99.90;;;;;;5100668;27;20055;-83
2023/07/29 09:59:40;;;;;;;3.70;1.80;;;23.60;99.90;;;;;;5098701;27;20511;-84
2023/07/29 10:02:15;;;;;;;3.75;1.90;;;24.00;99.90;;;;;;5105405;27;20107;-84
2023/07/29 10:04:45;;;;;;;2.78;1.60;;;24.10;99.90;;;;;;5104915;27;20122;-83
2023/07/29 10:07:12;;;;;;;4.32;1.80;;;23.80;99.90;;;;;;5099760;27;20048;-84
2023/07/29 10:09:39;;;;;;;3.55;1.98;;;23.30;99.90;;;;;;5092124;27;20043;-83
2023/07/29 10:12:06;;;;;;;3.17;1.60;;;23.40;99.90;;;;;;5084854;27;20090;-84
2023/07/29 10:14:32;;;;;;;3.50;1.50;;;23.80;99.90;;;;;;5105013;27;20036;-83
2023/07/29 10:16:59;;;;;;;4.22;1.40;;;24.50;99.90;;;;;;5083141;28;20043;-84
2023/07/29 10:19:26;;;;;;;3.42;1.60;;;24.70;99.90;;;;;;5082309;27;20088;-83
2023/07/29 10:21:52;;;;;;;2.45;1.25;;;24.70;99.90;;;;;;5091156;27;20035;-84
2023/07/29 10:24:28;;;;;;;3.00;1.50;;;24.30;99.90;;;;;;5102129;27;20877;-83
2023/07/29 10:26:57;;;;;;;3.53;1.70;;;24.00;99.90;;;;;;5076741;27;20084;-83
2023/07/29 10:29:24;;;;;;;2.92;1.42;;;24.40;99.90;;;;;;5102112;27;20122;-83
2023/07/29 10:31:53;;;;;;;2.03;1.40;;;23.80;99.90;;;;;;5091067;27;20032;-84
2023/07/29 10:34:20;;;;;;;2.70;1.73;;;23.70;99.90;;;;;;5083921;27;20099;-84
2023/07/29 10:36:48;;;;;;;2.97;1.90;;;24.30;99.90;;;;;;5103635;27;20031;-84
2023/07/29 10:39:14;;;;;;;2.88;1.70;;;24.50;99.90;;;;;;5083431;28;20042;-84
2023/07/29 10:42:00;;;;;;;6.85;2.53;;;24.10;99.90;;;;;;5083150;28;20212;-83
2023/07/29 10:44:43;;;;;;;3.60;1.58;;;24.60;99.90;;;;;;5121587;27;20112;-83
2023/07/29 10:47:22;;;;;;;2.83;1.80;;;24.50;99.90;;;;;;5087030;27;20130;-83
2023/07/29 10:49:54;;;;;;;4.10;1.75;;;24.50;99.90;;;;;;5087189;27;20043;-84
2023/07/29 10:52:34;;;;;;;4.47;2.10;;;24.80;99.90;;;;;;5085346;27;20028;-83
2023/07/29 10:55:01;;;;;;;4.30;2.00;;;24.40;99.90;;;;;;5120610;27;20032;-84
2023/07/29 10:57:40;;;;;;;3.63;1.77;;;24.20;99.90;;;;;;5082600;27;20442;-84
2023/07/29 11:00:07;;;;;;;3.78;1.73;;;24.30;99.90;;;;;;5091737;27;20046;-84
2023/07/29 11:02:36;;;;;;;3.25;1.25;;;24.20;99.90;;;;;;5126630;27;20039;-83
2023/07/29 11:05:07;;;;;;;2.72;1.30;;;23.50;99.90;;;;;;5075567;27;20047;-83
2023/07/29 11:07:44;;;;;;;5.30;1.20;;;22.80;99.90;;;;;;5085051;27;20122;-84
2023/07/29 11:10:09;;;;;;;2.95;0.90;;;22.30;99.90;;;;;;5088989;27;20419;-84
2023/07/29 11:12:52;;;;;;;3.17;1.00;;;22.10;99.90;;;;;;5087797;27;20121;-84
2023/07/29 11:15:27;;;;;;;2.13;1.25;;;22.40;99.90;;;;;;5123866;27;20084;-84
2023/07/29 11:18:00;;;;;;;1.98;1.10;;;22.30;99.90;;;;;;5119442;27;20057;-84
2023/07/29 11:20:27;;;;;;;3.03;1.40;;;22.80;99.90;;;;;;5079519;27;20150;-83
2023/07/29 11:22:54;;;;;;;2.03;1.02;;;22.80;99.90;;;;;;5122636;27;20042;-83
2023/07/29 11:25:22;;;;;;;2.30;1.20;;;23.60;99.90;;;;;;5093248;27;20307;-83
2023/07/29 11:27:48;;;;;;;3.25;1.00;;;23.50;99.90;;;;;;5106828;27;20050;-84
2023/07/29 11:30:16;;;;;;;2.72;1.10;;;23.60;99.90;;;;;;5105573;27;20046;-84
2023/07/29 11:32:43;;;;;;;2.65;1.77;;;23.60;99.90;;;;;;5103540;27;20031;-83
2023/07/29 11:35:15;;;;;;;5.20;1.95;;;23.50;99.90;;;;;;5093772;27;20118;-83
2023/07/29 11:37:43;;;;;;;3.53;2.00;;;23.90;99.90;;;;;;5088741;27;20442;-84
2023/07/29 11:40:13;;;;;;;5.07;1.90;;;23.40;99.90;;;;;;5113590;27;20035;-83
2023/07/29 11:42:39;;;;;;;3.17;2.00;;;23.40;99.90;;;;;;5083120;27;20464;-83
2023/07/29 11:45:09;;;;;;;3.80;1.80;;;22.90;99.90;;;;;;5085035;27;20077;-84
2023/07/29 11:47:36;;;;;;;4.10;2.10;;;23.00;99.90;;;;;;5115665;27;20289;-83
2023/07/29 11:50:09;;;;;;;4.43;1.98;;;23.70;99.90;;;;;;5104892;27;20035;-83
2023/07/29 11:52:35;;;;;;;4.70;1.80;;;23.70;99.90;;;;;;5098883;27;20047;-84
2023/07/29 11:55:03;;;;;;;2.63;2.00;;;23.40;99.90;;;;;;5109967;27;20111;-83
2023/07/29 11:57:38;;;;;;;4.78;2.50;;;23.40;99.90;;;;;;5104083;27;20050;-83
2023/07/29 12:00:09;;;;;;;6.10;2.13;;;22.90;99.90;;;;;;5089570;27;20386;-82
2023/07/29 12:02:45;;;;;;;4.40;2.05;;;22.80;99.90;;;;;;5092321;27;20325;-83
2023/07/29 12:05:13;;;;;;;4.05;2.40;;;22.40;99.90;;;;;;5105525;27;20054;-83
2023/07/29 12:07:39;;;;;;;2.40;1.95;;;21.80;99.90;;;;;;5091671;27;20100;-83
2023/07/29 12:10:06;;;;;;;5.60;2.97;;;21.70;99.90;;;;;;5111497;27;20035;-84
2023/07/29 12:12:31;;;;;;;7.00;2.97;;;21.80;99.90;;;;;;5110977;27;20043;-83
2023/07/29 12:14:57;;;;;;;6.47;2.42;;;21.90;99.90;;;;;;5106999;27;20869;-84
2023/07/29 12:17:23;;;;;;;3.53;2.40;;;22.10;99.90;;;;;;5098444;27;20039;-84
2023/07/29 12:19:49;;;;;;;4.18;2.08;;;22.50;99.90;;;;;;5110644;27;20817;-83
2023/07/29 12:22:19;;;;;;;6.70;2.72;;;23.10;99.90;;;;;;5088092;27;20050;-83
2023/07/29 12:24:44;;;;;;;5.03;2.47;;;23.00;99.90;;;;;;5113580;27;20104;-83
2023/07/29 12:27:12;;;;;;;4.43;2.50;;;22.40;99.90;;;;;;5108671;27;20042;-83
2023/07/29 12:29:42;;;;;;;3.70;2.53;;;22.70;99.90;;;;;;5124264;27;20091;-83
2023/07/29 12:32:08;;;;;;;3.80;2.08;;;23.60;99.90;;;;;;5117386;27;20501;-84
2023/07/29 12:34:36;;;;;;;4.10;2.33;;;23.90;99.90;;;;;;5088658;27;20036;-83
2023/07/29 12:37:03;;;;;;;4.13;2.15;;;24.30;99.90;;;;;;5089353;27;20035;-84
2023/07/29 12:39:32;;;;;;;3.60;2.15;;;23.90;99.90;;;;;;5100276;27;20157;-83
2023/07/29 12:41:59;;;;;;;3.65;1.90;;;23.50;99.90;;;;;;5122527;27;20607;-83
2023/07/29 12:44:31;;;;;;;3.90;2.10;;;24.10;99.90;;;;;;5112213;27;20069;-83
2023/07/29 12:46:57;;;;;;;5.47;2.03;;;24.50;99.90;;;;;;5103825;27;20132;-84
2023/07/29 12:49:23;;;;;;;3.75;2.13;;;24.50;99.90;;;;;;5084800;27;20067;-83